Aérodrome :
LOGIN :

S'inscrire | Disclaimer

   EN    FR    IT 

 










Légende :    VFR   VFR Marginal   IFR   IFR Intensif   IFR Très Intensif
Visi : 
Plafond : 
>= 8 km
>= 3000ft
5 à 8 km
1000 à 3000 ft
1500m à 5 km
500 à 1000 ft
800 à 1500m
200 à 500 ft
< 800m
< 200 ft
Symboles :   Orages  Brouillard  Fortes neiges  Fortes précipitations  Vent > 20 kt
SIGMETs :   Divers  Orages  Givrage  Turbulence  Onde Orograph.  Cendres Volcan.







- Altitude de l'aérodrome : 74 ft
- Code IATA : EIN


EHEH - Eindhoven

DERNIER METAR :
  • 190555Z AUTO 28001KT 9999 SCT034 OVC044 09/08 Q1030 BLU VRB03KT 9999 BKN035 TEMPO 2500 BR MIFG

METARs EXPIRÉS :
  • 190525Z AUTO VRB02KT 9999 FEW032 BKN038 OVC044 09/08 Q1030 BLU VRB03KT 9999 BKN035 TEMPO 2500 BR MIFG
  • 190455Z AUTO 34002KT 9999 OVC035 09/07 Q1030 BLU VRB03KT 9999 BKN035 TEMPO 2500 BR MIFG
  • 190425Z AUTO 32001KT 9999 SCT038 OVC044 08/07 Q1029 BLU
  • 190355Z AUTO 00000KT 9999 OVC045 08/07 Q1029 BLU
  • 190325Z AUTO VRB02KT 9999 BKN043 OVC047 08/07 Q1029 BLU

TAF TAF EHEH
Valide du 19 à 06h jusqu'au 20 à 12h UTC


190504Z 1906/2012 VRB01KT 9999 BKN035
BECMG 1909/1912 03005KT
BECMG 2000/2003 VRB02KT 4000 BR MIFG
PROB40 2001/2007 2000 BR MIFG
BECMG 2006/2008 9999 NSW
Pas de NOTAMs connus pour ce terrain.



MET'MAP, la Météo Aéronautique d'un coup d'oeil ! - Copyright ORBIFLY Décembre 2007 - Disclaimer

ORBIFLY MET'MAP TEAM :

Programmation & Développement : Alexandra Zaïnal
Conception & Développement : Baudouin d'Aumeries
Co-Programmation & Développement : Marc-Olivier Méhu
Soutien technique & logistique : Manuel Goepfert

Contact : metmap@orbifly.com




SOURCES & CREDITS :

   NOAA